createdAt,value
2022-10-18T00:00:06.788Z,15.40
2022-10-18T00:04:13.502Z,15.40
2022-10-18T00:08:21.050Z,15.30
2022-10-18T00:12:27.714Z,15.40
2022-10-18T00:16:34.407Z,15.40
2022-10-18T00:20:41.065Z,15.40
2022-10-18T00:24:47.708Z,15.40
2022-10-18T00:29:00.566Z,15.40
2022-10-18T00:33:07.243Z,15.40
2022-10-18T00:37:13.893Z,15.40
2022-10-18T00:41:23.764Z,15.40
2022-10-18T00:45:30.568Z,15.50
2022-10-18T00:49:43.669Z,15.50
2022-10-18T00:53:50.695Z,15.40
2022-10-18T00:57:57.789Z,15.40
2022-10-18T01:02:06.495Z,15.40
2022-10-18T01:06:13.308Z,15.40
2022-10-18T01:10:42.996Z,15.40
2022-10-18T01:14:52.503Z,15.40
2022-10-18T01:19:24.315Z,15.30
2022-10-18T01:24:10.256Z,15.30
2022-10-18T01:28:44.484Z,15.30
2022-10-18T01:32:54.364Z,15.30
2022-10-18T01:37:04.653Z,15.20
2022-10-18T01:41:15.715Z,15.20
2022-10-18T01:45:25.028Z,15.00
2022-10-18T01:49:33.385Z,15.00
2022-10-18T01:53:40.217Z,14.90
2022-10-18T01:57:59.926Z,14.80
2022-10-18T02:02:39.001Z,14.70
2022-10-18T02:06:50.528Z,14.70
2022-10-18T02:11:02.937Z,14.70
2022-10-18T02:15:14.502Z,14.70
2022-10-18T02:23:39.045Z,14.60
2022-10-18T02:27:46.046Z,14.60
2022-10-18T02:32:03.566Z,14.60
2022-10-18T02:36:21.112Z,14.60
2022-10-18T02:40:27.873Z,14.60
2022-10-18T02:44:35.296Z,14.50
2022-10-18T02:48:41.941Z,14.50
2022-10-18T02:52:48.576Z,14.40
2022-10-18T02:56:55.249Z,14.40
2022-10-18T03:01:02.055Z,14.30
2022-10-18T03:05:08.783Z,14.30
2022-10-18T03:09:15.462Z,14.30
2022-10-18T03:13:22.226Z,14.20
2022-10-18T03:17:29.073Z,14.20
2022-10-18T03:21:35.783Z,14.30
2022-10-18T03:25:45.617Z,14.20
2022-10-18T03:29:53.151Z,14.10
2022-10-18T03:33:59.781Z,14.10
2022-10-18T03:38:06.480Z,14.10
2022-10-18T03:42:13.145Z,14.00
2022-10-18T03:46:19.838Z,14.00
2022-10-18T03:50:26.525Z,14.00
2022-10-18T03:54:33.252Z,13.90
2022-10-18T03:58:39.927Z,13.90
2022-10-18T04:02:46.589Z,14.00
2022-10-18T04:06:53.715Z,14.00
2022-10-18T04:11:04.270Z,14.00
2022-10-18T04:15:11.154Z,14.00
2022-10-18T04:19:17.872Z,14.00
2022-10-18T04:23:24.639Z,14.00
2022-10-18T04:27:31.505Z,14.10
2022-10-18T04:31:38.658Z,14.10
2022-10-18T04:35:47.819Z,14.10
2022-10-18T04:39:54.498Z,14.20
2022-10-18T04:44:01.153Z,14.10
2022-10-18T04:48:07.874Z,14.10
2022-10-18T04:52:14.581Z,14.10
2022-10-18T04:56:22.512Z,14.00
2022-10-18T05:00:29.178Z,14.00
2022-10-18T05:04:35.853Z,14.00
2022-10-18T05:08:42.489Z,14.00
2022-10-18T05:12:49.355Z,14.00
2022-10-18T05:16:55.998Z,13.90
2022-10-18T05:21:02.698Z,13.90
2022-10-18T05:25:09.761Z,13.90
2022-10-18T05:29:16.566Z,13.90
2022-10-18T05:33:23.300Z,13.80
2022-10-18T05:37:30.312Z,13.90
2022-10-18T05:41:37.023Z,13.90
2022-10-18T05:45:50.747Z,13.70
2022-10-18T05:49:57.526Z,13.80
2022-10-18T05:54:04.535Z,13.70
2022-10-18T05:58:11.278Z,13.70
2022-10-18T06:02:17.991Z,13.60
2022-10-18T06:06:24.741Z,13.60
2022-10-18T06:10:31.396Z,13.60
2022-10-18T06:14:38.102Z,13.40
2022-10-18T06:18:49.330Z,13.50
2022-10-18T06:22:56.134Z,13.60
2022-10-18T06:27:08.431Z,13.60
2022-10-18T06:31:15.392Z,13.50
2022-10-18T06:35:22.071Z,13.30
2022-10-18T06:39:28.809Z,13.30
2022-10-18T06:43:35.728Z,13.40
2022-10-18T06:47:42.393Z,13.40
2022-10-18T06:51:49.165Z,13.30
2022-10-18T06:56:02.794Z,13.40
2022-10-18T07:00:10.058Z,13.50
2022-10-18T07:04:16.733Z,13.50
2022-10-18T07:08:23.450Z,13.50
2022-10-18T07:12:31.365Z,13.50
2022-10-18T07:16:38.162Z,13.60
2022-10-18T07:20:44.967Z,13.70
2022-10-18T07:24:51.598Z,13.80
2022-10-18T07:29:11.114Z,13.80
2022-10-18T07:33:17.849Z,13.80
2022-10-18T07:37:27.855Z,13.90
2022-10-18T07:41:37.225Z,13.90
2022-10-18T07:45:52.716Z,13.90
2022-10-18T07:49:59.501Z,13.80
2022-10-18T07:54:06.574Z,13.80
2022-10-18T07:58:13.436Z,13.90
2022-10-18T08:02:20.076Z,14.00
2022-10-18T08:06:26.763Z,14.10
2022-10-18T08:10:35.175Z,14.20
2022-10-18T08:14:42.387Z,14.20
2022-10-18T08:18:49.392Z,14.40
2022-10-18T08:22:59.885Z,14.60
2022-10-18T08:27:07.721Z,14.60
2022-10-18T08:31:20.403Z,14.60
2022-10-18T08:35:27.134Z,14.70
2022-10-18T08:39:33.894Z,14.80
2022-10-18T08:43:55.568Z,15.00
2022-10-18T08:48:04.400Z,15.00
2022-10-18T08:52:44.922Z,15.10
2022-10-18T08:56:59.986Z,15.40
2022-10-18T09:01:25.405Z,15.70
2022-10-18T09:05:50.686Z,16.00
2022-10-18T09:10:17.617Z,16.40
2022-10-18T09:14:45.374Z,16.90
2022-10-18T09:19:26.090Z,17.30
2022-10-18T09:24:04.872Z,17.60
2022-10-18T09:28:23.675Z,17.80
2022-10-18T09:33:19.783Z,18.00
2022-10-18T09:37:30.378Z,18.30
2022-10-18T09:41:48.184Z,18.50
2022-10-18T09:45:55.753Z,18.70
2022-10-18T09:50:14.948Z,18.70
2022-10-18T09:54:30.636Z,18.70
2022-10-18T09:58:44.015Z,18.90
2022-10-18T10:02:50.732Z,19.10
2022-10-18T10:07:01.127Z,19.30
2022-10-18T10:11:47.808Z,19.40
2022-10-18T10:16:02.008Z,19.30
2022-10-18T10:20:20.250Z,19.30
2022-10-18T10:24:42.517Z,19.40
2022-10-18T10:28:49.586Z,19.40
2022-10-18T10:32:57.293Z,19.60
2022-10-18T10:37:05.142Z,19.70
2022-10-18T10:41:20.634Z,19.70
2022-10-18T10:45:36.920Z,19.80
2022-10-18T10:49:47.514Z,19.80
2022-10-18T10:54:16.764Z,19.90
2022-10-18T10:58:24.254Z,20.00
2022-10-18T11:02:36.170Z,19.70
2022-10-18T11:07:12.703Z,19.70
2022-10-18T11:11:28.566Z,19.80
2022-10-18T11:16:05.795Z,19.80
2022-10-18T11:20:35.201Z,20.00
2022-10-18T11:24:41.993Z,20.30
2022-10-18T11:29:13.334Z,20.30
2022-10-18T11:33:56.398Z,20.10
2022-10-18T11:38:14.972Z,20.30
2022-10-18T11:42:24.725Z,20.30
2022-10-18T11:46:45.880Z,20.30
2022-10-18T11:50:58.067Z,20.10
2022-10-18T11:55:13.703Z,20.20
2022-10-18T11:59:32.441Z,20.30
2022-10-18T12:03:59.418Z,20.30
2022-10-18T12:08:11.416Z,20.40
2022-10-18T12:12:31.765Z,20.40
2022-10-18T12:17:20.268Z,20.50
2022-10-18T12:21:11.690Z,20.50
2022-10-18T12:25:19.214Z,20.70
2022-10-18T12:29:42.670Z,20.50
2022-10-18T12:33:55.632Z,20.60
2022-10-18T12:38:17.353Z,20.30
2022-10-18T12:42:30.908Z,20.10
2022-10-18T12:46:48.080Z,20.30
2022-10-18T12:51:16.728Z,20.50
2022-10-18T12:55:26.457Z,20.60
2022-10-18T12:59:33.075Z,20.50
2022-10-18T13:03:51.319Z,20.60
2022-10-18T13:08:27.061Z,20.40
2022-10-18T13:12:49.530Z,20.20
2022-10-18T13:17:15.315Z,20.20
2022-10-18T13:21:49.322Z,20.30
2022-10-18T13:26:04.285Z,20.20
2022-10-18T13:30:38.609Z,20.10
2022-10-18T13:34:45.290Z,19.80
2022-10-18T13:39:02.445Z,19.60
2022-10-18T13:43:53.468Z,19.60
2022-10-18T13:48:31.190Z,19.50
2022-10-18T13:53:16.521Z,19.30
2022-10-18T13:57:44.204Z,19.60
2022-10-18T14:02:13.892Z,19.50
2022-10-18T14:06:24.438Z,19.40
2022-10-18T14:11:00.870Z,19.30
2022-10-18T14:15:17.211Z,19.20
2022-10-18T14:19:41.671Z,19.00
2022-10-18T14:23:48.665Z,18.50
2022-10-18T14:28:21.712Z,18.30
2022-10-18T14:32:34.347Z,18.10
2022-10-18T14:36:42.823Z,17.90
2022-10-18T14:40:49.463Z,17.60
2022-10-18T14:44:56.643Z,17.50
2022-10-18T14:49:05.146Z,17.50
2022-10-18T14:53:21.011Z,17.40
2022-10-18T14:57:33.659Z,17.30
2022-10-18T15:01:40.757Z,17.10
2022-10-18T15:06:02.200Z,17.00
2022-10-18T15:10:19.115Z,16.80
2022-10-18T15:14:28.592Z,16.50
2022-10-18T15:18:35.309Z,16.40
2022-10-18T15:22:41.993Z,16.30
2022-10-18T15:26:49.817Z,16.30
2022-10-18T15:30:58.380Z,16.10
2022-10-18T15:35:22.121Z,16.10
2022-10-18T15:39:31.771Z,16.20
2022-10-18T15:43:38.572Z,15.90
2022-10-18T15:47:57.774Z,15.90
2022-10-18T15:52:37.412Z,16.00
2022-10-18T15:56:45.701Z,15.90
2022-10-18T16:00:56.216Z,15.70
2022-10-18T16:05:03.275Z,15.40
2022-10-18T16:09:15.339Z,15.40
2022-10-18T16:13:22.068Z,15.20
2022-10-18T16:17:28.721Z,15.10
2022-10-18T16:21:38.266Z,15.00
2022-10-18T16:25:45.543Z,15.10
2022-10-18T16:29:52.193Z,15.00
2022-10-18T16:33:59.698Z,15.00
2022-10-18T16:38:06.442Z,14.90
2022-10-18T16:42:13.077Z,14.80
2022-10-18T16:46:27.348Z,14.70
2022-10-18T16:50:35.401Z,14.50
2022-10-18T16:54:42.246Z,14.40
2022-10-18T16:58:50.251Z,14.30
2022-10-18T17:02:56.990Z,14.20
2022-10-18T17:07:04.933Z,14.10
2022-10-18T17:11:13.376Z,14.00
2022-10-18T17:15:20.263Z,13.90
2022-10-18T17:19:27.235Z,13.80
2022-10-18T17:23:34.167Z,13.60
2022-10-18T17:27:40.922Z,13.50
2022-10-18T17:31:47.586Z,13.40
2022-10-18T17:35:54.262Z,13.30
2022-10-18T17:40:01.849Z,13.20
2022-10-18T17:44:08.489Z,13.20
2022-10-18T17:48:15.165Z,13.10
2022-10-18T17:52:21.831Z,13.10
2022-10-18T17:56:33.222Z,13.00
2022-10-18T18:00:39.892Z,12.90
2022-10-18T18:04:46.556Z,12.80
2022-10-18T18:08:53.263Z,12.80
2022-10-18T18:13:00.223Z,12.70
2022-10-18T18:17:07.021Z,12.60
2022-10-18T18:21:13.966Z,12.50
2022-10-18T18:25:20.698Z,12.50
2022-10-18T18:29:27.967Z,12.40
2022-10-18T18:33:35.519Z,12.20
2022-10-18T18:37:42.229Z,12.10
2022-10-18T18:41:51.391Z,12.10
2022-10-18T18:45:58.109Z,12.00
2022-10-18T18:50:04.961Z,12.00
2022-10-18T18:54:13.848Z,11.90
2022-10-18T18:58:20.567Z,11.90
2022-10-18T19:02:27.450Z,11.80
2022-10-18T19:06:40.482Z,11.70
2022-10-18T19:10:49.278Z,11.70
2022-10-18T19:14:55.947Z,11.60
2022-10-18T19:19:08.094Z,11.50
2022-10-18T19:23:14.788Z,11.40
2022-10-18T19:27:21.661Z,11.40
2022-10-18T19:31:28.556Z,11.30
2022-10-18T19:35:35.242Z,11.30
2022-10-18T19:39:42.218Z,11.30
2022-10-18T19:43:49.165Z,11.20
2022-10-18T19:47:55.836Z,11.20
2022-10-18T19:52:02.635Z,11.10
2022-10-18T19:56:10.878Z,11.10
2022-10-18T20:00:19.695Z,11.00
2022-10-18T20:04:26.507Z,10.90
2022-10-18T20:08:34.814Z,10.80
2022-10-18T20:12:41.565Z,10.60
2022-10-18T20:16:48.252Z,10.40
2022-10-18T20:20:54.944Z,10.30
2022-10-18T20:25:01.882Z,10.20
2022-10-18T20:29:08.641Z,10.20
2022-10-18T20:33:15.389Z,10.10
2022-10-18T20:37:22.039Z,10.10
2022-10-18T20:41:34.717Z,10.00
2022-10-18T20:45:41.386Z,10.00
2022-10-18T20:49:48.077Z,9.90
2022-10-18T20:53:54.962Z,9.90
2022-10-18T20:58:01.711Z,10.00
2022-10-18T21:02:10.156Z,9.90
2022-10-18T21:06:18.586Z,9.80
2022-10-18T21:10:26.567Z,9.60
2022-10-18T21:14:33.230Z,9.50
2022-10-18T21:18:40.480Z,9.40
2022-10-18T21:22:47.218Z,9.20
2022-10-18T21:26:54.702Z,9.20
2022-10-18T21:31:16.073Z,9.10
2022-10-18T21:35:22.734Z,8.90
2022-10-18T21:39:30.132Z,8.90
2022-10-18T21:43:41.116Z,8.90
2022-10-18T21:47:47.800Z,9.00
2022-10-18T21:51:54.452Z,8.90
2022-10-18T21:56:08.965Z,8.90
2022-10-18T22:00:16.012Z,8.90
2022-10-18T22:04:24.853Z,8.90
2022-10-18T22:08:31.530Z,9.00
2022-10-18T22:12:38.182Z,8.90
2022-10-18T22:16:44.851Z,8.80
2022-10-18T22:20:59.912Z,8.80
2022-10-18T22:25:06.729Z,8.80
2022-10-18T22:29:21.615Z,8.70
2022-10-18T22:33:28.650Z,8.70
2022-10-18T22:37:35.654Z,8.60
2022-10-18T22:41:43.396Z,8.50
2022-10-18T22:45:50.079Z,8.40
2022-10-18T22:49:56.713Z,8.30
2022-10-18T22:54:03.699Z,8.20
2022-10-18T22:58:10.359Z,8.20
2022-10-18T23:02:17.014Z,8.20
2022-10-18T23:06:25.406Z,8.10
2022-10-18T23:10:32.134Z,8.10
2022-10-18T23:14:38.779Z,8.00
2022-10-18T23:18:53.615Z,8.00
2022-10-18T23:23:00.249Z,8.00
2022-10-18T23:27:06.907Z,7.90
2022-10-18T23:31:34.045Z,7.90
2022-10-18T23:35:40.676Z,7.80
2022-10-18T23:39:47.333Z,7.70
2022-10-18T23:43:54.455Z,7.60
2022-10-18T23:48:01.105Z,7.60
2022-10-18T23:52:07.779Z,7.60
2022-10-18T23:56:16.222Z,7.50
